createdAt,value
2018-05-07T00:01:58.452Z,4.3
2018-05-07T00:04:58.481Z,4.3
2018-05-07T00:07:58.739Z,4.3
2018-05-07T00:10:58.703Z,4.3
2018-05-07T00:13:58.460Z,4.3
2018-05-07T00:16:58.442Z,4.3
2018-05-07T00:19:58.543Z,4.3
2018-05-07T00:22:58.647Z,4.3
2018-05-07T00:25:58.508Z,4.3
2018-05-07T00:28:58.685Z,4.3
2018-05-07T00:31:58.546Z,4.3
2018-05-07T00:34:58.559Z,4.3
2018-05-07T00:37:58.590Z,4.3
2018-05-07T00:40:58.685Z,4.3
2018-05-07T00:43:58.604Z,4.3
2018-05-07T00:46:58.621Z,4.3
2018-05-07T00:49:58.612Z,4.3
2018-05-07T00:52:58.473Z,4.3
2018-05-07T00:55:58.498Z,4.3
2018-05-07T00:58:58.451Z,4.3
2018-05-07T01:01:58.478Z,4.1
2018-05-07T01:04:58.838Z,4.1
2018-05-07T01:07:58.545Z,4.1
2018-05-07T01:10:58.577Z,4.1
2018-05-07T01:13:58.483Z,4.1
2018-05-07T01:16:58.683Z,4.1
2018-05-07T01:19:58.572Z,4.1
2018-05-07T01:22:58.485Z,4.1
2018-05-07T01:25:58.540Z,4.1
2018-05-07T01:28:58.717Z,4.1
2018-05-07T01:31:58.457Z,4.1
2018-05-07T01:34:58.588Z,4.1
2018-05-07T01:37:58.569Z,4.1
2018-05-07T01:40:58.623Z,4.1
2018-05-07T01:43:58.615Z,4.1
2018-05-07T01:46:58.636Z,4.1
2018-05-07T01:49:58.678Z,4.1
2018-05-07T01:52:58.569Z,4.1
2018-05-07T01:55:58.476Z,4.1
2018-05-07T01:58:58.630Z,4.1
2018-05-07T02:01:58.543Z,3.9
2018-05-07T02:04:58.444Z,3.9
2018-05-07T02:07:58.466Z,3.9
2018-05-07T02:10:58.518Z,3.9
2018-05-07T02:13:58.555Z,3.9
2018-05-07T02:16:58.385Z,3.9
2018-05-07T02:19:58.522Z,3.9
2018-05-07T02:22:58.550Z,3.9
2018-05-07T02:25:58.586Z,3.9
2018-05-07T02:28:58.617Z,3.9
2018-05-07T02:31:58.574Z,3.9
2018-05-07T02:34:58.493Z,3.9
2018-05-07T02:37:58.493Z,3.9
2018-05-07T02:40:58.435Z,3.9
2018-05-07T02:43:58.468Z,3.9
2018-05-07T02:46:58.619Z,3.9
2018-05-07T02:49:58.520Z,3.9
2018-05-07T02:52:58.445Z,3.9
2018-05-07T02:55:58.387Z,3.9
2018-05-07T02:58:58.629Z,3.9
2018-05-07T03:01:58.494Z,3.6
2018-05-07T03:04:58.506Z,3.6
2018-05-07T03:07:58.554Z,3.6
2018-05-07T03:10:58.449Z,3.6
2018-05-07T03:13:58.415Z,3.6
2018-05-07T03:16:58.713Z,3.6
2018-05-07T03:19:58.531Z,3.6
2018-05-07T03:22:58.721Z,3.6
2018-05-07T03:25:58.408Z,3.6
2018-05-07T03:28:58.436Z,3.6
2018-05-07T03:31:58.627Z,3.6
2018-05-07T03:34:58.533Z,3.6
2018-05-07T03:37:58.492Z,3.6
2018-05-07T03:40:58.436Z,3.6
2018-05-07T03:43:58.483Z,3.6
2018-05-07T06:02:42.783Z,1.7
2018-05-07T06:05:42.309Z,1.7
2018-05-07T06:08:42.468Z,1.7
2018-05-07T06:11:42.547Z,1.7
2018-05-07T06:14:44.711Z,1.7
2018-05-07T06:17:42.225Z,1.7
2018-05-07T06:20:42.394Z,1.7
2018-05-07T06:23:42.232Z,1.7
2018-05-07T06:26:42.388Z,1.7
2018-05-07T06:29:42.254Z,1.7
2018-05-07T06:32:42.389Z,1.7
2018-05-07T06:35:42.479Z,1.7
2018-05-07T06:38:42.565Z,1.7
2018-05-07T06:41:42.448Z,1.7
2018-05-07T06:44:42.305Z,1.7
2018-05-07T06:47:42.486Z,1.7
2018-05-07T06:50:42.328Z,1.7
2018-05-07T06:53:43.641Z,1.7
2018-05-07T06:56:42.337Z,1.7
2018-05-07T06:59:42.396Z,1.7
2018-05-07T07:02:45.234Z,1.8
2018-05-07T07:05:42.470Z,1.8
2018-05-07T07:08:43.031Z,1.8
2018-05-07T07:11:42.306Z,1.8
2018-05-07T07:14:42.373Z,1.8
2018-05-07T07:17:42.478Z,1.8
2018-05-07T07:20:42.314Z,1.8
2018-05-07T07:23:42.397Z,1.8
2018-05-07T07:26:42.500Z,1.8
2018-05-07T07:29:52.245Z,1.8
2018-05-07T07:32:42.406Z,1.8
2018-05-07T07:35:42.231Z,1.8
2018-05-07T07:38:42.801Z,1.8
2018-05-07T07:41:42.471Z,1.8
2018-05-07T07:44:42.404Z,1.8
2018-05-07T07:47:42.607Z,1.8
2018-05-07T07:50:42.481Z,1.8
2018-05-07T07:53:43.281Z,1.8
2018-05-07T07:56:42.395Z,1.8
2018-05-07T07:59:42.348Z,1.8
2018-05-07T08:02:42.350Z,1.8
2018-05-07T08:05:42.307Z,1.8
2018-05-07T08:08:42.255Z,1.8
2018-05-07T08:11:42.433Z,1.8
2018-05-07T08:14:42.409Z,1.8
2018-05-07T08:17:42.314Z,1.8
2018-05-07T08:20:42.268Z,1.8
2018-05-07T08:23:42.308Z,1.8
2018-05-07T08:26:42.325Z,1.8
2018-05-07T08:29:42.297Z,1.8
2018-05-07T08:32:42.372Z,1.8
2018-05-07T08:35:42.459Z,1.8
2018-05-07T08:38:42.270Z,1.8
2018-05-07T08:41:42.282Z,1.8
2018-05-07T08:44:42.333Z,1.8
2018-05-07T08:47:42.372Z,1.8
2018-05-07T08:50:42.202Z,1.8
2018-05-07T08:53:42.444Z,1.8
2018-05-07T08:56:42.235Z,1.8
2018-05-07T08:59:42.385Z,1.8
2018-05-07T09:02:42.408Z,1.8
2018-05-07T09:05:42.205Z,1.8
2018-05-07T09:08:42.449Z,1.8
2018-05-07T09:11:42.397Z,1.8
2018-05-07T09:14:42.208Z,1.8
2018-05-07T09:17:42.264Z,1.8
2018-05-07T09:20:42.436Z,1.8
2018-05-07T09:23:42.431Z,1.8
2018-05-07T09:26:42.390Z,1.8
2018-05-07T09:29:42.228Z,1.8
2018-05-07T09:32:42.207Z,1.8
2018-05-07T09:35:42.373Z,1.8
2018-05-07T09:38:42.442Z,1.8
2018-05-07T09:41:42.207Z,1.8
2018-05-07T09:44:42.492Z,1.8
2018-05-07T09:47:42.429Z,1.8
2018-05-07T09:50:42.272Z,1.8
2018-05-07T09:53:42.324Z,1.8
2018-05-07T09:56:42.798Z,1.8
2018-05-07T09:59:42.352Z,1.8
2018-05-07T10:02:42.307Z,1.8
2018-05-07T10:05:42.550Z,1.8
2018-05-07T10:08:42.296Z,1.8
2018-05-07T10:11:42.295Z,1.8
2018-05-07T10:14:42.234Z,1.8
2018-05-07T10:17:42.449Z,1.8
2018-05-07T10:20:42.326Z,1.8
2018-05-07T10:23:42.386Z,1.8
2018-05-07T10:26:42.141Z,1.8
2018-05-07T10:29:42.709Z,1.8
2018-05-07T10:32:42.369Z,1.8
2018-05-07T10:35:42.393Z,1.8
2018-05-07T10:38:42.260Z,1.8
2018-05-07T10:41:42.208Z,1.8
2018-05-07T10:44:42.373Z,1.8
2018-05-07T10:47:42.272Z,1.8
2018-05-07T10:50:42.315Z,1.8
2018-05-07T10:53:42.305Z,1.8
2018-05-07T10:56:42.453Z,1.8
2018-05-07T10:59:42.205Z,1.8
2018-05-07T11:02:42.287Z,1.7
2018-05-07T11:05:42.268Z,1.7
2018-05-07T11:08:42.407Z,1.7
2018-05-07T11:11:42.341Z,1.7
2018-05-07T11:14:42.284Z,1.7
2018-05-07T11:17:42.329Z,1.7
2018-05-07T11:20:42.225Z,1.7
2018-05-07T11:23:42.398Z,1.7
2018-05-07T11:26:42.231Z,1.7
2018-05-07T11:29:42.299Z,1.7
2018-05-07T11:32:42.327Z,1.7
2018-05-07T11:35:42.313Z,1.7
2018-05-07T11:38:42.219Z,1.7
2018-05-07T11:41:42.223Z,1.7
2018-05-07T11:44:42.203Z,1.7
2018-05-07T11:47:43.337Z,1.7
2018-05-07T11:50:42.332Z,1.7
2018-05-07T11:53:42.252Z,1.7
2018-05-07T11:56:42.222Z,1.7
2018-05-07T11:59:42.234Z,1.7
2018-05-07T12:02:42.988Z,1.8
2018-05-07T12:05:42.402Z,1.8
2018-05-07T12:08:42.349Z,1.8
2018-05-07T12:11:42.359Z,1.8
2018-05-07T12:14:42.167Z,1.8
2018-05-07T12:17:42.236Z,1.8
2018-05-07T12:20:42.354Z,1.8
2018-05-07T12:23:42.263Z,1.8
2018-05-07T12:26:42.252Z,1.8
2018-05-07T12:29:42.281Z,1.8
2018-05-07T12:32:42.084Z,1.8
2018-05-07T12:35:42.464Z,1.8
2018-05-07T12:38:42.229Z,1.8
2018-05-07T12:41:42.367Z,1.8
2018-05-07T12:44:42.229Z,1.8
2018-05-07T12:47:42.157Z,1.8
2018-05-07T12:50:42.213Z,1.8
2018-05-07T12:53:42.355Z,1.8
2018-05-07T12:56:42.208Z,1.8
2018-05-07T12:59:42.134Z,1.8
2018-05-07T13:02:42.205Z,2
2018-05-07T13:05:42.311Z,2
2018-05-07T13:08:42.311Z,2
2018-05-07T13:11:42.278Z,2
2018-05-07T13:14:42.283Z,2
2018-05-07T13:17:42.290Z,2
2018-05-07T13:20:42.362Z,2
2018-05-07T13:23:42.108Z,2
2018-05-07T13:26:42.236Z,2
2018-05-07T13:29:42.151Z,2
2018-05-07T13:32:42.168Z,2
2018-05-07T13:35:42.216Z,2
2018-05-07T13:38:42.195Z,2
2018-05-07T13:41:42.234Z,2
2018-05-07T13:44:42.202Z,2
2018-05-07T13:47:42.375Z,2
2018-05-07T13:50:42.429Z,2
2018-05-07T13:53:42.133Z,2
2018-05-07T13:56:42.394Z,2
2018-05-07T13:59:42.313Z,2
2018-05-07T14:02:43.217Z,2.1
2018-05-07T14:05:42.293Z,2.1
2018-05-07T14:08:42.243Z,2.1
2018-05-07T14:11:42.351Z,2.1
2018-05-07T14:14:42.427Z,2.1
2018-05-07T14:17:42.401Z,2.1
2018-05-07T14:20:42.216Z,2.1
2018-05-07T14:23:41.997Z,2.1
2018-05-07T14:26:42.203Z,2.1
2018-05-07T14:29:42.465Z,2.1
2018-05-07T14:32:42.197Z,2.1
2018-05-07T14:35:42.264Z,2.1
2018-05-07T14:38:43.071Z,2.1
2018-05-07T14:41:42.271Z,2.1
2018-05-07T14:44:42.215Z,2.1
2018-05-07T14:47:42.314Z,2.1
2018-05-07T14:50:42.424Z,2.1
2018-05-07T14:53:42.149Z,2.1
2018-05-07T14:56:42.305Z,2.1
2018-05-07T14:59:42.156Z,2.1
2018-05-07T15:02:42.382Z,2.2
2018-05-07T15:05:42.062Z,2.2
2018-05-07T15:08:42.171Z,2.2
2018-05-07T15:11:42.173Z,2.2
2018-05-07T15:14:42.259Z,2.2
2018-05-07T15:17:42.142Z,2.2
2018-05-07T15:20:42.162Z,2.2
2018-05-07T15:23:42.152Z,2.2
2018-05-07T15:26:42.306Z,2.2
2018-05-07T15:29:42.168Z,2.2
2018-05-07T15:32:42.163Z,2.2
2018-05-07T15:35:42.128Z,2.2
2018-05-07T15:38:42.057Z,2.2
2018-05-07T15:41:42.294Z,2.2
2018-05-07T15:44:42.366Z,2.2
2018-05-07T15:47:42.207Z,2.2
2018-05-07T15:50:42.264Z,2.2
2018-05-07T15:53:42.588Z,2.2
2018-05-07T15:56:42.212Z,2.2
2018-05-07T15:59:42.220Z,2.2
2018-05-07T16:02:42.593Z,2.2
2018-05-07T16:05:42.054Z,2.2
2018-05-07T16:08:43.088Z,2.2
2018-05-07T16:11:42.139Z,2.2
2018-05-07T16:14:42.167Z,2.2
2018-05-07T16:17:42.674Z,2.2
2018-05-07T16:20:43.200Z,2.2
2018-05-07T16:23:42.251Z,2.2
2018-05-07T16:26:42.453Z,2.2
2018-05-07T16:29:42.377Z,2.2
2018-05-07T16:32:42.375Z,2.2
2018-05-07T16:35:43.197Z,2.2
2018-05-07T16:38:42.483Z,2.2
2018-05-07T16:41:42.623Z,2.2
2018-05-07T16:44:42.168Z,2.2
2018-05-07T16:47:42.297Z,2.2
2018-05-07T16:50:42.461Z,2.2
2018-05-07T16:53:42.307Z,2.2
2018-05-07T16:56:42.223Z,2.2
2018-05-07T16:59:42.416Z,2.2
2018-05-07T17:02:42.157Z,2.1
2018-05-07T17:05:42.330Z,2.1
2018-05-07T17:08:42.141Z,2.1
2018-05-07T17:11:42.351Z,2.1
2018-05-07T17:14:42.285Z,2.1
2018-05-07T17:17:42.376Z,2.1
2018-05-07T17:20:42.276Z,2.1
2018-05-07T17:23:42.314Z,2.1
2018-05-07T17:26:42.396Z,2.1
2018-05-07T17:29:42.321Z,2.1
2018-05-07T17:32:42.240Z,2.1
2018-05-07T17:35:42.307Z,2.1
2018-05-07T17:38:42.443Z,2.1
2018-05-07T17:41:42.283Z,2.1
2018-05-07T17:44:42.211Z,2.1
2018-05-07T17:47:42.324Z,2.1
2018-05-07T17:50:42.224Z,2.1
2018-05-07T17:53:42.205Z,2.1
2018-05-07T17:56:42.065Z,2.1
2018-05-07T17:59:42.262Z,2.1
2018-05-07T18:02:42.255Z,2.1
2018-05-07T18:05:42.262Z,2.1
2018-05-07T18:08:42.378Z,2.1
2018-05-07T18:11:42.224Z,2.1
2018-05-07T18:14:42.158Z,2.1
2018-05-07T18:17:42.457Z,2.1
2018-05-07T18:20:42.351Z,2.1
2018-05-07T18:23:42.189Z,2.1
2018-05-07T18:26:42.217Z,2.1
2018-05-07T18:29:42.254Z,2.1
2018-05-07T18:32:42.387Z,2.1
2018-05-07T18:35:42.333Z,2.1
2018-05-07T18:38:42.333Z,2.1
2018-05-07T18:41:42.236Z,2.1
2018-05-07T18:44:42.285Z,2.1
2018-05-07T18:47:42.315Z,2.1
2018-05-07T18:50:42.361Z,2.1
2018-05-07T18:53:42.493Z,2.1
2018-05-07T18:56:42.427Z,2.1
2018-05-07T18:59:42.192Z,2.1
2018-05-07T19:02:42.474Z,2.1
2018-05-07T19:05:42.231Z,2.1
2018-05-07T19:08:42.296Z,2.1
2018-05-07T19:11:42.340Z,2.1
2018-05-07T19:14:42.352Z,2.1
2018-05-07T19:17:42.373Z,2.1
2018-05-07T19:20:42.471Z,2.1
2018-05-07T19:23:42.580Z,2.1
2018-05-07T19:26:42.424Z,2.1
2018-05-07T19:29:42.307Z,2.1
2018-05-07T19:32:42.192Z,2.1
2018-05-07T19:35:42.263Z,2.1
2018-05-07T19:38:42.310Z,2.1
2018-05-07T19:41:42.226Z,2.1
2018-05-07T19:44:42.175Z,2.1
2018-05-07T19:47:42.380Z,2.1
2018-05-07T19:50:42.569Z,2.1
2018-05-07T19:53:42.064Z,2.1
2018-05-07T19:56:42.386Z,2.1
2018-05-07T19:59:42.309Z,2.1
2018-05-07T20:02:42.368Z,2.3
2018-05-07T20:05:42.278Z,2.3
2018-05-07T20:08:42.287Z,2.3
2018-05-07T20:11:42.315Z,2.3
2018-05-07T20:14:42.426Z,2.3
2018-05-07T20:17:42.224Z,2.3
2018-05-07T20:20:42.210Z,2.3
2018-05-07T20:23:42.327Z,2.3
2018-05-07T20:26:42.211Z,2.3
2018-05-07T20:29:42.363Z,2.3
2018-05-07T20:32:42.511Z,2.3
2018-05-07T20:35:42.145Z,2.3
2018-05-07T20:38:42.309Z,2.3
2018-05-07T20:41:42.055Z,2.3
2018-05-07T20:44:42.142Z,2.3
2018-05-07T20:47:42.350Z,2.3
2018-05-07T20:50:42.109Z,2.3
2018-05-07T20:53:42.084Z,2.3
2018-05-07T20:56:42.335Z,2.3
2018-05-07T20:59:42.117Z,2.3
2018-05-07T21:02:42.167Z,2.4
2018-05-07T21:05:42.183Z,2.4
2018-05-07T21:08:42.305Z,2.4
2018-05-07T21:11:42.288Z,2.4
2018-05-07T21:14:42.171Z,2.4
2018-05-07T21:17:42.143Z,2.4
2018-05-07T21:20:42.348Z,2.4
2018-05-07T21:23:42.330Z,2.4
2018-05-07T21:26:42.101Z,2.4
2018-05-07T21:29:42.252Z,2.4
2018-05-07T21:32:42.375Z,2.4
2018-05-07T21:35:43.285Z,2.4
2018-05-07T21:38:42.061Z,2.4
2018-05-07T21:41:42.191Z,2.4
2018-05-07T21:44:42.190Z,2.4
2018-05-07T21:47:42.037Z,2.4
2018-05-07T21:50:42.138Z,2.4
2018-05-07T21:53:42.095Z,2.4
2018-05-07T21:56:42.148Z,2.4
2018-05-07T21:59:42.259Z,2.4
2018-05-07T22:02:42.228Z,2.5
2018-05-07T22:05:42.152Z,2.5
2018-05-07T22:08:42.216Z,2.5
2018-05-07T22:11:42.160Z,2.5
2018-05-07T22:14:42.277Z,2.5
2018-05-07T22:17:42.094Z,2.5
2018-05-07T22:20:42.316Z,2.5
2018-05-07T22:23:42.149Z,2.5
2018-05-07T22:26:42.331Z,2.5
2018-05-07T22:29:42.243Z,2.5
2018-05-07T22:32:42.107Z,2.5
2018-05-07T22:35:42.329Z,2.5
2018-05-07T22:38:42.310Z,2.5
2018-05-07T22:41:42.158Z,2.5
2018-05-07T22:44:42.010Z,2.5
2018-05-07T22:47:42.405Z,2.5
2018-05-07T22:50:42.258Z,2.5
2018-05-07T22:53:42.236Z,2.5
2018-05-07T22:56:42.223Z,2.5
2018-05-07T22:59:42.349Z,2.5
2018-05-07T23:02:52.103Z,2.5
2018-05-07T23:05:42.026Z,2.5
2018-05-07T23:08:42.140Z,2.5
2018-05-07T23:11:42.123Z,2.5
2018-05-07T23:14:42.327Z,2.5
2018-05-07T23:17:42.275Z,2.5
2018-05-07T23:20:42.216Z,2.5
2018-05-07T23:23:42.010Z,2.5
2018-05-07T23:26:42.047Z,2.5
2018-05-07T23:29:42.241Z,2.5
2018-05-07T23:32:42.250Z,2.5
2018-05-07T23:35:42.212Z,2.5
2018-05-07T23:38:42.151Z,2.5
2018-05-07T23:41:42.145Z,2.5
2018-05-07T23:44:42.197Z,2.5
2018-05-07T23:47:41.995Z,2.5
2018-05-07T23:50:42.233Z,2.5
2018-05-07T23:53:42.034Z,2.5
2018-05-07T23:56:42.261Z,2.5
2018-05-07T23:59:42.106Z,2.5
